createdAt,value
2022-08-03T00:00:31.705Z,99.70
2022-08-03T00:05:39.877Z,99.80
2022-08-03T00:08:11.513Z,99.70
2022-08-03T00:10:42.880Z,99.90
2022-08-03T00:15:51.191Z,99.50
2022-08-03T00:18:22.530Z,99.80
2022-08-03T00:23:50.923Z,99.90
2022-08-03T00:26:02.243Z,99.90
2022-08-03T00:28:32.903Z,99.90
2022-08-03T00:31:03.556Z,99.90
2022-08-03T00:33:58.368Z,99.90
2022-08-03T00:36:07.917Z,99.90
2022-08-03T00:38:38.534Z,99.90
2022-08-03T00:41:09.156Z,99.90
2022-08-03T00:43:39.729Z,99.90
2022-08-03T00:46:10.462Z,99.90
2022-08-03T00:48:42.168Z,99.90
2022-08-03T00:51:12.956Z,99.90
2022-08-03T00:53:44.319Z,99.90
2022-08-03T00:56:16.775Z,99.90
2022-08-03T00:58:48.293Z,99.90
2022-08-03T01:01:19.306Z,99.90
2022-08-03T01:03:49.927Z,99.90
2022-08-03T01:06:22.924Z,99.90
2022-08-03T01:08:57.203Z,99.90
2022-08-03T01:11:30.994Z,99.90
2022-08-03T01:14:18.562Z,99.90
2022-08-03T01:16:42.488Z,99.90
2022-08-03T01:19:22.203Z,99.90
2022-08-03T01:21:56.358Z,99.90
2022-08-03T01:24:34.739Z,99.90
2022-08-03T01:27:10.931Z,99.90
2022-08-03T01:30:03.770Z,99.90
2022-08-03T01:32:58.964Z,99.90
2022-08-03T01:35:21.888Z,99.90
2022-08-03T01:37:56.683Z,99.90
2022-08-03T01:40:29.807Z,99.90
2022-08-03T01:43:03.431Z,99.90
2022-08-03T01:45:35.529Z,99.90
2022-08-03T01:48:08.461Z,99.90
2022-08-03T01:50:39.630Z,99.90
2022-08-03T01:53:11.946Z,99.90
2022-08-03T01:55:44.071Z,99.90
2022-08-03T01:58:17.105Z,99.90
2022-08-03T02:00:49.234Z,99.90
2022-08-03T02:03:21.852Z,99.90
2022-08-03T02:06:11.508Z,99.90
2022-08-03T02:08:28.496Z,99.90
2022-08-03T02:11:00.598Z,99.90
2022-08-03T02:13:32.056Z,99.90
2022-08-03T02:16:04.368Z,99.90
2022-08-03T02:18:38.175Z,99.90
2022-08-03T02:21:11.975Z,99.90
2022-08-03T02:23:44.606Z,99.90
2022-08-03T02:26:18.554Z,99.90
2022-08-03T02:28:52.066Z,99.90
2022-08-03T02:31:25.925Z,99.90
2022-08-03T02:33:59.177Z,99.90
2022-08-03T02:36:32.861Z,99.90
2022-08-03T02:39:05.502Z,99.90
2022-08-03T02:41:39.493Z,99.90
2022-08-03T02:44:13.481Z,99.90
2022-08-03T02:46:48.195Z,99.90
2022-08-03T02:49:41.397Z,99.90
2022-08-03T02:51:55.740Z,99.90
2022-08-03T02:54:28.141Z,99.90
2022-08-03T02:57:02.885Z,99.90
2022-08-03T02:59:35.033Z,99.90
2022-08-03T03:02:06.121Z,99.90
2022-08-03T03:04:38.288Z,99.90
2022-08-03T03:07:12.629Z,99.90
2022-08-03T03:09:44.749Z,99.90
2022-08-03T03:12:17.319Z,99.90
2022-08-03T03:14:48.231Z,99.90
2022-08-03T03:17:20.462Z,99.90
2022-08-03T03:19:52.414Z,99.90
2022-08-03T03:22:24.890Z,99.90
2022-08-03T03:24:56.286Z,99.90
2022-08-03T03:27:27.668Z,99.90
2022-08-03T03:30:00.524Z,99.90
2022-08-03T03:32:31.695Z,99.90
2022-08-03T03:35:02.579Z,99.90
2022-08-03T03:37:33.470Z,99.90
2022-08-03T03:40:04.923Z,99.90
2022-08-03T03:42:35.673Z,99.90
2022-08-03T03:45:08.663Z,99.90
2022-08-03T03:47:39.810Z,99.90
2022-08-03T03:50:12.754Z,99.90
2022-08-03T03:52:43.352Z,99.90
2022-08-03T03:55:17.944Z,99.90
2022-08-03T03:57:48.706Z,99.90
2022-08-03T04:00:21.240Z,99.90
2022-08-03T04:02:51.820Z,99.90
2022-08-03T04:05:44.235Z,99.90
2022-08-03T04:08:33.341Z,99.90
2022-08-03T04:11:09.868Z,99.90
2022-08-03T04:13:42.875Z,99.90
2022-08-03T04:16:16.827Z,99.90
2022-08-03T04:18:50.546Z,99.90
2022-08-03T04:21:23.611Z,99.90
2022-08-03T04:23:57.436Z,99.90
2022-08-03T04:26:31.315Z,99.90
2022-08-03T04:29:04.057Z,99.90
2022-08-03T04:31:36.628Z,99.90
2022-08-03T04:34:07.458Z,99.90
2022-08-03T04:36:41.320Z,99.90
2022-08-03T04:39:14.964Z,99.90
2022-08-03T04:42:02.268Z,99.90
2022-08-03T04:44:21.065Z,99.90
2022-08-03T04:46:54.340Z,99.90
2022-08-03T04:49:26.437Z,99.90
2022-08-03T04:51:57.446Z,99.90
2022-08-03T04:54:28.080Z,99.90
2022-08-03T04:56:58.882Z,99.90
2022-08-03T04:59:29.441Z,99.90
2022-08-03T05:02:00.127Z,99.90
2022-08-03T05:04:31.218Z,99.90
2022-08-03T05:07:11.651Z,99.90
2022-08-03T05:09:52.473Z,99.90
2022-08-03T05:12:08.957Z,99.90
2022-08-03T05:14:40.366Z,99.90
2022-08-03T05:17:11.506Z,99.90
2022-08-03T05:19:42.068Z,99.90
2022-08-03T05:22:12.701Z,99.90
2022-08-03T05:24:43.319Z,99.90
2022-08-03T05:27:16.389Z,99.90
2022-08-03T05:29:47.058Z,99.90
2022-08-03T05:32:18.723Z,99.90
2022-08-03T05:34:49.597Z,99.90
2022-08-03T05:37:20.211Z,99.90
2022-08-03T05:39:50.839Z,99.90
2022-08-03T05:42:21.426Z,99.90
2022-08-03T05:44:52.301Z,99.90
2022-08-03T05:47:23.133Z,99.90
2022-08-03T05:49:53.761Z,99.90
2022-08-03T05:52:24.701Z,99.90
2022-08-03T05:54:57.759Z,99.90
2022-08-03T05:57:29.257Z,99.90
2022-08-03T05:59:59.906Z,99.90
2022-08-03T06:02:30.671Z,99.90
2022-08-03T06:05:01.322Z,99.90
2022-08-03T06:07:32.127Z,99.90
2022-08-03T06:10:35.970Z,99.90
2022-08-03T06:12:36.438Z,99.90
2022-08-03T06:15:11.278Z,99.90
2022-08-03T06:17:48.597Z,99.90
2022-08-03T06:20:20.907Z,99.90
2022-08-03T06:23:00.377Z,99.90
2022-08-03T06:25:26.190Z,99.90
2022-08-03T06:27:57.103Z,99.90
2022-08-03T06:30:28.245Z,99.90
2022-08-03T06:32:58.892Z,99.90
2022-08-03T06:35:29.693Z,99.90
2022-08-03T06:38:01.562Z,99.90
2022-08-03T06:40:33.119Z,99.90
2022-08-03T06:45:42.514Z,99.90
2022-08-03T06:48:14.470Z,99.90
2022-08-03T06:50:45.365Z,99.90
2022-08-03T06:53:18.212Z,99.90
2022-08-03T06:55:53.849Z,99.90
2022-08-03T06:58:20.947Z,99.90
2022-08-03T07:00:51.976Z,99.90
2022-08-03T07:03:22.694Z,99.90
2022-08-03T07:05:53.377Z,99.90
2022-08-03T07:08:33.725Z,99.90
2022-08-03T07:10:57.308Z,99.90
2022-08-03T07:13:28.887Z,99.90
2022-08-03T07:15:59.756Z,99.90
2022-08-03T07:18:32.490Z,99.90
2022-08-03T07:21:03.577Z,99.90
2022-08-03T07:23:34.845Z,99.90
2022-08-03T07:26:06.089Z,99.90
2022-08-03T07:28:38.622Z,99.90
2022-08-03T07:31:09.839Z,99.90
2022-08-03T07:33:41.244Z,99.90
2022-08-03T07:36:12.201Z,99.90
2022-08-03T07:38:43.527Z,99.90
2022-08-03T07:41:14.335Z,99.90
2022-08-03T07:43:45.316Z,99.90
2022-08-03T07:46:17.788Z,99.90
2022-08-03T07:48:48.483Z,99.90
2022-08-03T07:51:19.139Z,99.90
2022-08-03T07:53:49.856Z,99.90
2022-08-03T07:56:23.020Z,99.90
2022-08-03T07:58:54.188Z,99.90
2022-08-03T08:01:25.413Z,99.90
2022-08-03T08:03:56.582Z,99.90
2022-08-03T08:06:27.325Z,99.90
2022-08-03T08:09:00.185Z,99.90
2022-08-03T08:11:30.953Z,99.90
2022-08-03T08:14:03.042Z,99.90
2022-08-03T08:16:34.137Z,99.90
2022-08-03T08:19:04.771Z,99.90
2022-08-03T08:21:53.863Z,99.90
2022-08-03T08:24:13.319Z,99.90
2022-08-03T08:26:43.482Z,99.90
2022-08-03T08:29:14.291Z,99.90
2022-08-03T08:31:45.692Z,99.90
2022-08-03T08:34:16.495Z,99.90
2022-08-03T08:36:47.256Z,99.90
2022-08-03T08:39:19.177Z,99.90
2022-08-03T08:41:53.608Z,99.90
2022-08-03T08:44:24.257Z,99.90
2022-08-03T08:46:57.764Z,99.90
2022-08-03T08:49:30.814Z,99.90
2022-08-03T08:52:02.726Z,99.90
2022-08-03T08:54:34.719Z,99.90
2022-08-03T08:59:47.725Z,99.00
2022-08-03T09:02:19.772Z,98.90
2022-08-03T09:04:56.569Z,97.60
2022-08-03T09:07:31.472Z,98.50
2022-08-03T09:10:12.079Z,96.60
2022-08-03T09:12:42.698Z,96.20
2022-08-03T09:15:29.304Z,95.80
2022-08-03T09:18:04.433Z,96.40
2022-08-03T09:20:37.062Z,96.80
2022-08-03T09:23:44.590Z,96.60
2022-08-03T09:26:02.234Z,96.40
2022-08-03T09:28:59.782Z,95.80
2022-08-03T09:31:10.609Z,94.30
2022-08-03T09:33:49.622Z,94.50
2022-08-03T09:36:40.664Z,94.00
2022-08-03T09:39:13.709Z,94.20
2022-08-03T09:41:46.120Z,93.60
2022-08-03T09:44:25.754Z,92.50
2022-08-03T09:46:54.642Z,92.40
2022-08-03T09:49:25.771Z,93.30
2022-08-03T09:52:32.073Z,92.80
2022-08-03T09:54:30.043Z,93.70
2022-08-03T09:57:01.318Z,92.60
2022-08-03T09:59:33.709Z,93.20
2022-08-03T10:02:04.363Z,92.70
2022-08-03T10:04:35.002Z,93.30
2022-08-03T10:07:09.489Z,92.90
2022-08-03T10:09:42.468Z,91.90
2022-08-03T10:12:15.320Z,92.00
2022-08-03T10:14:48.396Z,92.10
2022-08-03T10:17:19.390Z,92.60
2022-08-03T10:19:51.059Z,92.60
2022-08-03T10:22:24.242Z,92.20
2022-08-03T10:24:59.818Z,91.10
2022-08-03T10:27:33.825Z,88.90
2022-08-03T10:30:07.257Z,90.60
2022-08-03T10:32:42.035Z,89.50
2022-08-03T10:35:20.899Z,85.10
2022-08-03T10:37:56.929Z,87.30
2022-08-03T10:40:47.690Z,87.20
2022-08-03T10:42:59.579Z,86.50
2022-08-03T10:45:31.967Z,85.20
2022-08-03T10:50:43.532Z,84.00
2022-08-03T10:53:14.678Z,85.20
2022-08-03T10:56:05.746Z,83.40
2022-08-03T10:58:57.916Z,82.00
2022-08-03T11:01:59.956Z,82.00
2022-08-03T11:04:25.639Z,81.80
2022-08-03T11:07:22.658Z,80.60
2022-08-03T11:09:54.887Z,81.50
2022-08-03T11:12:30.725Z,80.30
2022-08-03T11:15:01.902Z,80.10
2022-08-03T11:17:33.295Z,81.40
2022-08-03T11:20:05.619Z,81.70
2022-08-03T11:22:53.859Z,78.40
2022-08-03T11:25:53.758Z,78.60
2022-08-03T11:28:28.355Z,79.00
2022-08-03T11:31:00.848Z,79.40
2022-08-03T11:36:11.080Z,76.50
2022-08-03T11:39:06.575Z,77.00
2022-08-03T11:41:44.846Z,78.60
2022-08-03T11:44:10.232Z,75.70
2022-08-03T11:46:41.759Z,75.70
2022-08-03T11:51:50.241Z,76.90
2022-08-03T11:54:23.053Z,76.80
2022-08-03T11:56:53.842Z,76.40
2022-08-03T11:59:35.070Z,77.80
2022-08-03T12:02:10.364Z,74.90
2022-08-03T12:04:53.286Z,76.40
2022-08-03T12:08:03.596Z,75.70
2022-08-03T12:12:58.070Z,73.70
2022-08-03T12:15:31.201Z,74.00
2022-08-03T12:18:02.299Z,73.90
2022-08-03T12:20:35.018Z,74.30
2022-08-03T12:23:08.000Z,72.80
2022-08-03T12:25:41.174Z,73.80
2022-08-03T12:30:55.271Z,72.50
2022-08-03T12:36:09.144Z,72.70
2022-08-03T12:38:41.493Z,69.90
2022-08-03T12:41:15.392Z,66.50
2022-08-03T12:46:35.292Z,66.10
2022-08-03T12:49:14.795Z,67.90
2022-08-03T12:52:06.822Z,67.70
2022-08-03T12:54:35.187Z,68.80
2022-08-03T12:57:07.784Z,67.60
2022-08-03T12:59:41.502Z,66.40
2022-08-03T13:02:19.989Z,63.30
2022-08-03T13:04:53.558Z,61.50
2022-08-03T13:07:24.793Z,60.60
2022-08-03T13:12:35.869Z,63.70
2022-08-03T13:20:22.532Z,63.30
2022-08-03T13:22:59.177Z,62.10
2022-08-03T13:28:06.484Z,58.50
2022-08-03T13:30:37.400Z,58.90
2022-08-03T13:33:07.988Z,57.70
2022-08-03T13:35:38.588Z,58.50
2022-08-03T13:40:46.606Z,58.60
2022-08-03T13:43:18.836Z,58.00
2022-08-03T13:45:53.566Z,56.50
2022-08-03T13:48:35.786Z,58.20
2022-08-03T13:53:33.381Z,57.60
2022-08-03T13:56:03.925Z,57.30
2022-08-03T13:58:34.906Z,56.60
2022-08-03T14:01:05.498Z,57.70
2022-08-03T14:03:36.168Z,59.10
2022-08-03T14:06:06.931Z,57.60
2022-08-03T14:08:37.643Z,58.30
2022-08-03T14:11:08.932Z,57.70
2022-08-03T14:13:39.715Z,57.60
2022-08-03T14:16:10.344Z,56.50
2022-08-03T14:18:43.114Z,56.00
2022-08-03T14:21:15.123Z,56.30
2022-08-03T14:23:45.696Z,55.50
2022-08-03T14:26:17.888Z,55.10
2022-08-03T14:28:48.876Z,54.60
2022-08-03T14:32:11.291Z,54.40
2022-08-03T14:33:51.671Z,55.60
2022-08-03T14:36:22.518Z,55.60
2022-08-03T14:38:53.271Z,54.20
2022-08-03T14:41:24.445Z,54.60
2022-08-03T14:44:01.234Z,53.10
2022-08-03T14:46:29.263Z,52.20
2022-08-03T14:50:34.122Z,52.90
2022-08-03T14:51:32.255Z,53.10
2022-08-03T14:54:02.926Z,52.30
2022-08-03T14:56:33.558Z,53.60
2022-08-03T14:59:04.125Z,52.00
2022-08-03T15:02:02.272Z,52.10
2022-08-03T15:04:07.251Z,51.70
2022-08-03T15:06:38.399Z,52.20
2022-08-03T15:09:23.659Z,51.90
2022-08-03T15:11:41.243Z,52.30
2022-08-03T15:14:13.340Z,51.50
2022-08-03T15:16:44.302Z,50.70
2022-08-03T15:20:00.381Z,51.80
2022-08-03T15:21:47.770Z,51.40
2022-08-03T15:24:18.511Z,51.30
2022-08-03T15:26:49.176Z,49.50
2022-08-03T15:30:05.231Z,50.30
2022-08-03T15:31:52.131Z,49.10
2022-08-03T15:34:22.836Z,49.20
2022-08-03T15:36:53.462Z,49.30
2022-08-03T15:39:24.205Z,49.60
2022-08-03T15:41:55.103Z,49.00
2022-08-03T15:44:27.025Z,49.90
2022-08-03T15:46:57.614Z,50.30
2022-08-03T15:49:28.288Z,50.30
2022-08-03T15:51:58.904Z,50.10
2022-08-03T15:54:29.662Z,51.00
2022-08-03T15:57:00.260Z,49.60
2022-08-03T15:59:30.871Z,50.70
2022-08-03T16:02:01.501Z,50.40
2022-08-03T16:04:32.195Z,49.90
2022-08-03T16:07:02.837Z,51.70
2022-08-03T16:09:43.291Z,52.30
2022-08-03T16:12:06.630Z,50.20
2022-08-03T16:14:48.411Z,50.30
2022-08-03T16:17:11.284Z,51.20
2022-08-03T16:19:42.034Z,50.50
2022-08-03T16:22:12.647Z,51.10
2022-08-03T16:24:44.995Z,50.70
2022-08-03T16:27:37.173Z,51.20
2022-08-03T16:29:48.012Z,51.30
2022-08-03T16:32:18.803Z,52.30
2022-08-03T16:34:49.356Z,53.40
2022-08-03T16:37:38.186Z,53.20
2022-08-03T16:39:52.427Z,53.80
2022-08-03T16:42:23.057Z,54.60
2022-08-03T16:44:53.642Z,55.70
2022-08-03T16:47:24.381Z,56.90
2022-08-03T16:49:56.520Z,56.10
2022-08-03T16:52:27.693Z,57.00
2022-08-03T16:54:58.365Z,57.10
2022-08-03T16:57:31.886Z,57.20
2022-08-03T17:00:01.785Z,58.70
2022-08-03T17:02:33.547Z,61.60
2022-08-03T17:05:06.423Z,58.60
2022-08-03T17:07:40.822Z,58.50
2022-08-03T17:10:13.238Z,58.40
2022-08-03T17:12:43.826Z,58.80
2022-08-03T17:15:14.906Z,58.30
2022-08-03T17:17:53.678Z,59.50
2022-08-03T17:20:29.743Z,58.90
2022-08-03T17:22:58.642Z,59.20
2022-08-03T17:25:39.739Z,59.20
2022-08-03T17:28:48.700Z,61.80
2022-08-03T17:30:54.925Z,59.00
2022-08-03T17:33:25.650Z,59.50
2022-08-03T17:35:59.210Z,60.20
2022-08-03T17:38:32.024Z,59.00
2022-08-03T17:41:10.942Z,58.30
2022-08-03T17:44:14.247Z,59.30
2022-08-03T17:46:11.147Z,59.30
2022-08-03T17:48:42.101Z,58.90
2022-08-03T17:51:17.977Z,60.50
2022-08-03T17:53:52.338Z,60.60
2022-08-03T17:56:40.679Z,60.90
2022-08-03T17:59:08.319Z,61.90
2022-08-03T18:02:09.484Z,61.90
2022-08-03T18:04:34.875Z,62.10
2022-08-03T18:07:11.958Z,62.70
2022-08-03T18:10:03.313Z,63.20
2022-08-03T18:12:17.620Z,64.00
2022-08-03T18:14:57.147Z,64.60
2022-08-03T18:17:25.422Z,64.80
2022-08-03T18:20:01.381Z,65.30
2022-08-03T18:22:31.698Z,66.10
2022-08-03T18:25:07.529Z,65.20
2022-08-03T18:27:42.887Z,65.90
2022-08-03T18:30:13.715Z,64.30
2022-08-03T18:33:00.616Z,64.80
2022-08-03T18:35:19.920Z,66.20
2022-08-03T18:37:53.282Z,64.60
2022-08-03T18:40:28.376Z,65.20
2022-08-03T18:42:59.081Z,65.60
2022-08-03T18:45:57.563Z,66.60
2022-08-03T18:48:08.433Z,66.80
2022-08-03T18:50:48.264Z,66.90
2022-08-03T18:53:21.742Z,66.80
2022-08-03T18:56:02.429Z,66.30
2022-08-03T18:58:30.573Z,69.80
2022-08-03T19:01:05.520Z,71.50
2022-08-03T19:03:42.690Z,72.40
2022-08-03T19:06:19.210Z,73.00
2022-08-03T19:08:50.251Z,73.10
2022-08-03T19:11:27.932Z,72.90
2022-08-03T19:14:00.347Z,73.60
2022-08-03T19:16:38.829Z,74.80
2022-08-03T19:19:11.137Z,75.60
2022-08-03T19:21:45.263Z,75.80
2022-08-03T19:24:17.875Z,76.70
2022-08-03T19:26:52.251Z,77.10
2022-08-03T19:29:25.271Z,78.00
2022-08-03T19:32:00.046Z,77.80
2022-08-03T19:34:33.096Z,77.60
2022-08-03T19:37:04.897Z,78.80
2022-08-03T19:39:37.701Z,78.90
2022-08-03T19:42:20.192Z,79.00
2022-08-03T19:44:47.757Z,78.70
2022-08-03T19:47:25.855Z,79.30
2022-08-03T19:50:10.097Z,79.60
2022-08-03T19:52:37.242Z,80.70
2022-08-03T19:55:12.097Z,79.90
2022-08-03T19:57:45.705Z,80.00
2022-08-03T20:00:26.486Z,79.70
2022-08-03T20:02:53.653Z,79.80
2022-08-03T20:05:24.786Z,79.40
2022-08-03T20:08:00.392Z,79.30
2022-08-03T20:10:33.481Z,80.00
2022-08-03T20:13:05.617Z,80.80
2022-08-03T20:15:41.392Z,81.50
2022-08-03T20:18:16.898Z,81.10
2022-08-03T20:20:46.524Z,82.00
2022-08-03T20:23:19.860Z,82.10
2022-08-03T20:25:58.554Z,81.90
2022-08-03T20:28:30.175Z,82.30
2022-08-03T20:33:46.443Z,82.10
2022-08-03T20:36:07.605Z,82.00
2022-08-03T20:38:43.809Z,82.40
2022-08-03T20:41:13.477Z,81.80
2022-08-03T20:43:44.804Z,81.60
2022-08-03T20:46:32.788Z,82.60
2022-08-03T20:48:51.360Z,82.90
2022-08-03T20:51:49.728Z,82.70
2022-08-03T20:54:01.018Z,82.50
2022-08-03T20:56:33.601Z,81.80
2022-08-03T20:59:05.901Z,82.50
2022-08-03T21:01:38.832Z,82.10
2022-08-03T21:04:11.887Z,82.60
2022-08-03T21:06:53.478Z,83.10
2022-08-03T21:09:21.151Z,83.40
2022-08-03T21:11:55.192Z,83.50
2022-08-03T21:13:07.090Z,81.70
2022-08-03T21:14:30.125Z,83.70
2022-08-03T21:17:06.168Z,84.60
2022-08-03T21:19:38.267Z,84.00
2022-08-03T21:22:12.930Z,84.10
2022-08-03T21:24:45.276Z,84.80
2022-08-03T21:27:16.703Z,84.80
2022-08-03T21:29:53.087Z,84.60
2022-08-03T21:32:32.368Z,85.20
2022-08-03T21:34:56.183Z,85.00
2022-08-03T21:37:27.579Z,86.00
2022-08-03T21:39:59.277Z,85.70
2022-08-03T21:42:30.528Z,87.10
2022-08-03T21:45:01.412Z,87.00
2022-08-03T21:47:34.193Z,86.90
2022-08-03T21:50:09.647Z,87.00
2022-08-03T21:52:43.495Z,87.40
2022-08-03T21:55:20.390Z,87.80
2022-08-03T21:57:53.011Z,88.40
2022-08-03T22:00:25.068Z,88.70
2022-08-03T22:02:58.352Z,88.70
2022-08-03T22:05:43.619Z,89.40
2022-08-03T22:08:03.888Z,89.20
2022-08-03T22:10:35.022Z,90.10
2022-08-03T22:13:05.959Z,90.50
2022-08-03T22:15:37.276Z,90.60
2022-08-03T22:18:08.814Z,90.50
2022-08-03T22:20:39.949Z,90.10
2022-08-03T22:23:11.829Z,90.10
2022-08-03T22:25:43.326Z,90.20
2022-08-03T22:28:15.991Z,90.60
2022-08-03T22:30:48.247Z,90.70
2022-08-03T22:33:20.075Z,90.30
2022-08-03T22:35:53.925Z,90.30
2022-08-03T22:38:26.580Z,90.40
2022-08-03T22:40:57.911Z,90.40
2022-08-03T22:43:31.146Z,90.50
2022-08-03T22:46:10.513Z,90.40
2022-08-03T22:48:40.826Z,90.70
2022-08-03T22:51:11.908Z,91.20
2022-08-03T22:53:43.200Z,91.30
2022-08-03T22:56:15.832Z,91.50
2022-08-03T22:58:47.204Z,91.70
2022-08-03T23:01:21.333Z,91.60
2022-08-03T23:04:01.010Z,91.40
2022-08-03T23:06:46.153Z,91.30
2022-08-03T23:09:20.121Z,91.40
2022-08-03T23:11:51.868Z,91.50
2022-08-03T23:14:24.083Z,91.60
2022-08-03T23:16:56.716Z,91.70
2022-08-03T23:19:30.259Z,91.80
2022-08-03T23:22:05.743Z,91.90
2022-08-03T23:24:55.134Z,91.90
2022-08-03T23:27:26.015Z,92.10
2022-08-03T23:29:58.063Z,92.10
2022-08-03T23:32:30.096Z,92.40
2022-08-03T23:35:21.076Z,92.30
2022-08-03T23:38:03.926Z,92.30
2022-08-03T23:40:45.228Z,92.40
2022-08-03T23:43:20.982Z,92.50
2022-08-03T23:45:52.783Z,92.40
2022-08-03T23:48:23.763Z,92.00
2022-08-03T23:50:58.069Z,91.90
2022-08-03T23:53:33.088Z,91.90
2022-08-03T23:56:16.543Z,91.80
2022-08-03T23:58:57.202Z,91.90
